x

N01 - Northeast Channel (44024) Wave Buoy

7:04pm - Thu 21st Aug 2014 All times are ADT. -3 hours from GMT.

  • Sig Wave height 1.6ft
  • Peak Period 3s
  • Wind
    16mph, 18mph gusts
  • Sea Temp 64°f
  • Air Temp 65°f
  • Sea Pressure 1017mb
  • N01 - Northeast Channel
  • N01 - Northeast Channel

More Historic Weather Station data

Upgrade to MSW Pro to gain access to the past 30 days of data for over 8000 Wavebouys and Weather Stations around the globe.

Join Pro

Comparision Forecast

View Surf forecast
   
Thu 08/21 7:04pm 1.6ft 3s 16 18 mph 1017mb 64f 65f
5:04pm 2ft 3s 16 20 mph 1016.7mb 64f 64f
4:04pm 2.5ft 6s 11 13 mph 1016.8mb 64f 64f
3:04pm 2.5ft 6s 11 13 mph 1017.1mb 64f 65f
1:04pm 1.6ft 8s 9 11 mph 1017.2mb 65f 65f
11:04am 1.6ft 6s 7
mph
1017.7mb 65f 65f
9:04am 1.6ft 6s 9 11 mph 1017.4mb 64f 63f
7:04am 1ft 5s 7
mph
1017mb 61f 62f
5:04am 2ft 6s 7 9 mph 1016.5mb 63f 63f
3:04am 2ft 5s 2 4 mph 1016.9mb 63f 62f
1:04am 1.6ft 11s 2 4 mph 1017.3mb 65f 63f
Wed 08/20 11:04pm 1.6ft 11s  -  mph 1017mb 64f 63f
9:04pm 1.6ft 6s 2 4 mph 1016.7mb 65f 65f
7:04pm 1.6ft 6s 2
mph
1016.2mb 65f 72f
5:04pm 1.6ft 6s 4 7 mph 1016mb 64f 68f
3:04pm 2ft 6s 4
mph
1016.1mb 65f 65f
1:04pm 1.6ft 6s 4
mph
1016.6mb 64f 64f
11:04am 2ft 8s 2 4 mph 1016.5mb 62f 64f
9:04am 1.6ft 8s 2
mph
1015.7mb 62f 63f
8:04am 2ft 6s  -  2 mph 1015.5mb 62f 64f
7:04am 1.6ft 6s 2
mph
1015mb 62f 62f
5:04am 1.6ft 11s 2 4 mph 1014.3mb 62f 61f
3:04am 2ft 6s 4
mph
1014.3mb 62f 62f
1:04am 2ft 8s 7 9 mph 1014.1mb 62f 62f
12:04am 2.5ft 8s 7
mph
1014.3mb 62f 62f
Tue 08/19 11:04pm 2ft 4s 4 7 mph 1014mb 61f 62f
9:04pm 2.5ft 5s 2 4 mph 1013.4mb 62f 62f
7:04pm 2.5ft 5s 7
mph
1012.7mb 62f 64f
5:04pm 2ft 5s 9 11 mph 1012.3mb 63f 64f
3:04pm 2.5ft 5s 9 11 mph 1012.1mb 62f 63f
1:04pm 2.5ft 4s 9 11 mph 1012.1mb 62f 62f
11:04am 3ft 5s 9 11 mph 1011.5mb 61f 62f
9:04am 3ft 5s 9 11 mph 1010.7mb 61f 63f
8:04am 3ft 5s 9 11 mph 1010.3mb 62f 63f
7:04am 3ft 5s 9 11 mph 1009.7mb 62f 62f
5:04am 3ft 5s 13
mph
1008.6mb 62f 62f
3:04am 3.5ft 5s 16 18 mph 1008.3mb 62f 63f
1:04am 3.5ft 5s 16 18 mph 1008.4mb 62f 63f
12:04am 3.5ft 8s  -  mph - 62f -
Mon 08/18 5:04pm 3ft 5s 11 16 mph 1006.2mb 62f 64f
3:04pm 3.5ft 6s 11 13 mph 1006.1mb 64f 63f
11:04am 4.5ft 6s 11 13 mph 1006.1mb 63f 63f
9:04am 4.5ft 6s 13 16 mph 1006mb 63f 62f
8:04am 5ft 6s 9
mph
1005.4mb 63f 64f
7:04am 4.5ft 6s 9 11 mph 1005.1mb 63f 63f
5:04am 4.5ft 6s 7
mph
1004.8mb 62f 63f
3:04am 4.5ft 6s 11 13 mph 1005.5mb 63f 64f
1:04am 4ft 8s 11 13 mph 1006.2mb 64f 64f